Northwest Sanderling — VNVZ — position and weather

sailwx.info

Track history (hours):
 
Tides and Currents Weather Stations Pressure Air Temp Water Temp Dewpoint Dewpoint Depression Visibility Wind Speed Wind Dir Waves Ship Positions

Northwest Sanderling

Last reported at 2014-Nov-06 10:33 UTC. Time now 2014-Dec-19 21:03 UTC.
Position N 34°06' E 134°56'.
Warning: this ship's position is 43 days out of date.

Length 272 m; beam 47.2 m; draft 11.4 m.

Type: Ship (hazmat cat A). MMSI: 503000050.

Date/timePositionNaut miles runAvg speedWind from/ knotsBaromVisibWave heightAir tempDewpointWater temp
2014-Nov-06 10:33N 34°06' E 134°56'1312.6
2014-Nov-06 09:33N 34°18' E 134°59'1313.5
2014-Nov-06 08:33N 34°30' E 135°06'8 7.6
2014-Nov-06 07:33N 34°37' E 135°01'1212.0
2014-Nov-06 06:33N 34°33' E 134°47'15 0.5
2014-Nov-04 20:18N 34°28' E 134°30'912.3
2014-Nov-04 19:33N 34°31' E 134°40'1312.9
2014-Nov-04 18:33N 34°36' E 134°54'1010.2
2014-Nov-04 17:33N 34°36' E 135°07'8 7.8
2014-Nov-04 16:33N 34°28' E 135°06'1111.0
2014-Nov-04 15:33N 34°18' E 134°60'1010.5
2014-Nov-04 14:33N 34°08' E 134°59'1210.3
2014-Nov-04 13:25N 33°56' E 134°58'  
Track history (hours):
 
Tides and Currents Weather Stations Pressure Air Temp Water Temp Dewpoint Dewpoint Depression Visibility Wind Speed Wind Dir Waves Ship Positions

Northwest Sanderling

Last reported at 2014-Nov-06 10:33 UTC. Time now 2014-Dec-19 21:03 UTC.
Position N 34°06' E 134°56'.
Warning: this ship's position is 43 days out of date.

Length 272 m; beam 47.2 m; draft 11.4 m.

Type: Ship (hazmat cat A). MMSI: 503000050.

Date/timePositionNaut miles runAvg speedWind from/ knotsBaromVisibWave heightAir tempDewpointWater temp
2014-Nov-06 10:33N 34°06' E 134°56'1312.6
2014-Nov-06 09:33N 34°18' E 134°59'1313.5
2014-Nov-06 08:33N 34°30' E 135°06'8 7.6
2014-Nov-06 07:33N 34°37' E 135°01'1212.0
2014-Nov-06 06:33N 34°33' E 134°47'15 0.5
2014-Nov-04 20:18N 34°28' E 134°30'912.3
2014-Nov-04 19:33N 34°31' E 134°40'1312.9
2014-Nov-04 18:33N 34°36' E 134°54'1010.2
2014-Nov-04 17:33N 34°36' E 135°07'8 7.8
2014-Nov-04 16:33N 34°28' E 135°06'1111.0
2014-Nov-04 15:33N 34°18' E 134°60'1010.5
2014-Nov-04 14:33N 34°08' E 134°59'1210.3
2014-Nov-04 13:25N 33°56' E 134°58'  

Dump ship's entire track history